Terminal Aerodrome Forecast
Issued by NWS

Home | Current Version | Previous Version | Text Only | Print | Product List | Glossary On
Versions: 1 2 3 4 5 6 7 8 9 10 11 12 13 14 15 16 17
000
FTUS43 KICT 021700
TAFCNU
TAF
KCNU 021735Z 0218/0318 17008KT P6SM SCT035 BKN120
     FM022300 13008KT P6SM VCTS SCT035 BKN060CB
     FM030800 13010KT P6SM VCTS BKN025 OVC050CB
     FM031200 16010KT P6SM BKN120=

USA.gov is the U.S. government's official web portal to all federal, state and local government web resources and services.